Time;durP1;ratioP1;P1;durP2;ratioP2;P2;SDS_P1;SDS_P2;PMS_P1;PMS_P2;Temp;Humidity;BMP_temperature;BMP_pressure;BME280_temperature;BME280_humidity;BME280_pressure;Samples;Min_cycle;Max_cycle;Signal;HPM_P1;HPM_P2
2021/12/26 00:00:20;;;;;;;63.30;21.17;;;;;;;-11.36;82.28;100816.16;1691823;81;21000;-78
2021/12/26 00:02:46;;;;;;;73.80;22.30;;;;;;;-11.37;82.19;100824.40;1705035;81;21563;-78
2021/12/26 00:05:13;;;;;;;59.03;22.57;;;;;;;-11.37;82.28;100824.40;1712431;81;20964;-78
2021/12/26 00:07:40;;;;;;;63.92;21.02;;;;;;;-11.37;82.21;100832.26;1710163;80;21530;-78
2021/12/26 00:10:11;;;;;;;71.40;21.03;;;;;;;-11.39;82.23;100827.53;1711023;81;21060;-78
2021/12/26 00:12:38;;;;;;;57.07;21.50;;;;;;;-11.39;82.18;100833.39;1751887;80;21051;-78
2021/12/26 00:15:06;;;;;;;62.67;20.47;;;;;;;-11.41;82.14;100827.80;1752163;80;20932;-78
2021/12/26 00:17:32;;;;;;;63.17;22.17;;;;;;;-11.42;82.20;100833.16;1710515;81;21063;-78
2021/12/26 00:19:59;;;;;;;68.00;22.90;;;;;;;-11.40;82.23;100840.39;1742921;80;21115;-78
2021/12/26 00:22:26;;;;;;;62.37;20.10;;;;;;;-11.40;82.27;100835.39;1748717;80;22175;-79
2021/12/26 00:24:52;;;;;;;59.67;21.23;;;;;;;-11.40;82.22;100839.14;1747837;80;21039;-79
2021/12/26 00:27:19;;;;;;;;;;;;;;;-11.41;82.17;100839.02;1754818;80;21071;-79
2021/12/26 00:29:46;;;;;;;62.95;20.37;;;;;;;-11.42;82.20;100838.16;1710950;81;20536;-78
2021/12/26 00:32:13;;;;;;;56.17;21.63;;;;;;;-11.43;82.16;100836.80;1719596;81;21357;-78
2021/12/26 00:34:39;;;;;;;57.57;20.57;;;;;;;-11.44;82.18;100828.85;1732156;81;20909;-78
2021/12/26 00:37:06;;;;;;;71.87;20.50;;;;;;;-11.45;82.17;100833.34;1717045;81;20895;-78
2021/12/26 00:39:34;;;;;;;54.50;19.07;;;;;;;-11.51;82.07;100836.25;1692509;81;21433;-78
2021/12/26 00:42:01;;;;;;;67.73;20.63;;;;;;;-11.53;82.10;100834.40;1699414;81;20937;-78
2021/12/26 00:44:27;;;;;;;68.37;22.33;;;;;;;-11.56;82.08;100831.30;1702662;81;20933;-78
2021/12/26 00:46:53;;;;;;;;;;;;;;;-11.60;82.04;100825.97;1706875;81;21457;-78
2021/12/26 00:49:22;;;;;;;65.40;21.93;;;;;;;-11.64;81.96;100826.48;1706068;81;20124;-78
2021/12/26 00:51:49;;;;;;;84.73;27.23;;;;;;;-11.67;81.93;100826.26;1740501;81;21780;-78
2021/12/26 00:54:15;;;;;;;84.43;26.57;;;;;;;-11.70;82.04;100825.28;1758639;81;20940;-78
2021/12/26 00:56:42;;;;;;;94.23;29.13;;;;;;;-11.67;82.25;100822.52;1761481;80;20896;-78
2021/12/26 00:59:08;;;;;;;79.63;26.17;;;;;;;-11.65;82.22;100817.27;1758491;80;20920;-78
2021/12/26 01:01:34;;;;;;;78.93;26.07;;;;;;;-11.66;82.15;100818.89;1755868;80;20881;-78
2021/12/26 01:04:01;;;;;;;85.00;26.40;;;;;;;-11.71;82.06;100818.92;1747314;80;20888;-78
2021/12/26 01:06:28;;;;;;;;;;;;;;;-11.74;82.03;100816.20;1761260;80;20892;-78
2021/12/26 01:08:55;;;;;;;74.57;23.87;;;;;;;-11.79;81.96;100813.77;1758191;80;20100;-78
2021/12/26 01:11:36;;;;;;;74.77;23.90;;;;;;;-11.83;81.94;100814.30;1758653;80;20860;-78
2021/12/26 01:14:04;;;;;;;70.47;21.73;;;;;;;-11.88;81.92;100818.06;1741902;80;20869;-78
2021/12/26 01:16:31;;;;;;;77.73;21.30;;;;;;;-11.93;81.92;100816.84;1708914;81;20907;-78
2021/12/26 01:19:05;;;;;;;66.67;20.70;;;;;;;-11.98;81.88;100809.42;1697082;81;21576;-78
2021/12/26 01:21:26;;;;;;;65.17;21.27;;;;;;;-12.00;81.96;100809.30;1712989;80;21032;-79
2021/12/26 01:23:57;;;;;;;66.17;21.50;;;;;;;-12.02;81.94;100810.81;1708108;81;21464;-78
2021/12/26 01:26:24;;;;;;;59.50;19.47;;;;;;;-12.06;81.89;100819.67;1716136;81;20871;-77
2021/12/26 01:28:50;;;;;;;60.33;19.17;;;;;;;-12.08;81.94;100819.94;1708865;81;20989;-77
2021/12/26 01:31:19;;;;;;;;;;;;;;;-12.09;81.94;100824.80;1715628;81;21865;-77
2021/12/26 01:33:47;;;;;;;72.33;22.63;;;;;;;-12.11;81.88;100820.08;1721731;81;20172;-78
2021/12/26 01:36:13;;;;;;;77.27;24.97;;;;;;;-12.13;81.91;100824.08;1721063;82;21463;-78
2021/12/26 01:38:39;;;;;;;72.17;23.50;;;;;;;-12.16;81.91;100815.98;1708216;80;21479;-78
2021/12/26 01:41:10;;;;;;;81.00;22.60;;;;;;;-12.16;81.95;100818.85;1715041;80;21053;-78
2021/12/26 01:43:40;;;;;;;67.50;22.87;;;;;;;-12.17;82.00;100819.61;1720892;81;21097;-78
2021/12/26 01:46:07;;;;;;;58.63;21.60;;;;;;;-12.15;82.05;100824.33;1732441;80;21080;-78
2021/12/26 01:48:33;;;;;;;62.10;21.53;;;;;;;-12.14;82.10;100828.19;1720870;81;21025;-78
2021/12/26 01:51:00;;;;;;;60.33;20.93;;;;;;;-12.13;82.07;100827.44;1721080;80;20993;-78
2021/12/26 01:53:37;;;;;;;66.70;20.10;;;;;;;-12.11;82.07;100831.29;1724902;80;21508;-78
2021/12/26 01:55:59;;;;;;;57.93;20.40;;;;;;;-12.14;81.99;100829.44;1711831;80;21828;-78
2021/12/26 01:58:29;;;;;;;62.00;20.63;;;;;;;-12.14;81.96;100833.55;1686657;83;20906;-78
2021/12/26 02:01:00;;;;;;;62.60;20.87;;;;;;;-12.15;81.95;100836.79;1727131;80;22165;-78
2021/12/26 02:03:27;;;;;;;61.87;21.70;;;;;;;-12.18;81.91;100834.93;1713281;80;22220;-78
2021/12/26 02:05:53;;;;;;;58.90;21.93;;;;;;;-12.18;81.94;100829.08;1713205;80;21112;-78
2021/12/26 02:08:20;;;;;;;65.50;20.63;;;;;;;-12.20;81.83;100836.44;1722634;80;21476;-78
2021/12/26 02:10:47;;;;;;;66.27;21.27;;;;;;;-12.25;81.80;100835.21;1721336;80;21117;-78
2021/12/26 02:13:14;;;;;;;62.17;20.80;;;;;;;-12.26;81.84;100832.22;1713383;80;22177;-77
2021/12/26 02:15:40;;;;;;;57.07;20.30;;;;;;;-12.28;81.75;100832.48;1714894;80;22145;-77
2021/12/26 02:18:08;;;;;;;65.37;21.20;;;;;;;-12.31;81.74;100828.88;1722860;80;21442;-77
2021/12/26 02:23:16;;;;;;;64.67;19.75;;;;;;;-12.40;81.69;100838.62;1710834;83;21798;-78
2021/12/26 02:28:14;;;;;;;66.27;21.33;;;;;;;-12.50;81.60;100826.23;1731054;80;22276;-77
2021/12/26 02:30:40;;;;;;;54.97;18.83;;;;;;;-12.53;81.68;100823.87;1668925;81;267426;-77
2021/12/26 02:33:10;;;;;;;59.83;19.33;;;;;;;-12.52;81.82;100831.47;1627962;86;22023;-78
2021/12/26 02:35:35;;;;;;;57.00;19.50;;;;;;;-12.47;82.00;100826.81;1626514;86;21422;-77
2021/12/26 02:38:01;;;;;;;57.43;19.20;;;;;;;-12.45;81.91;100822.82;1630688;86;20986;-77
2021/12/26 02:40:28;;;;;;;51.40;18.90;;;;;;;-12.47;81.83;100821.83;1630482;86;20912;-77
2021/12/26 02:42:54;;;;;;;58.50;17.67;;;;;;;-12.49;81.75;100823.36;1631822;86;21535;-77
2021/12/26 02:45:20;;;;;;;61.13;18.37;;;;;;;-12.55;81.62;100826.63;1606011;87;20944;-77
2021/12/26 02:47:49;;;;;;;55.53;18.73;;;;;;;-12.57;81.71;100829.36;1632678;86;21593;-77
2021/12/26 02:50:20;;;;;;;54.83;19.37;;;;;;;-12.60;81.66;100832.86;1630566;86;21325;-78
2021/12/26 02:52:47;;;;;;;50.83;18.90;;;;;;;-12.59;81.71;100833.36;1628246;86;21421;-77
2021/12/26 02:55:17;;;;;;;60.83;17.63;;;;;;;-12.63;81.65;100838.84;1616198;86;21401;-77
2021/12/26 02:57:53;;;;;;;47.60;16.83;;;;;;;-12.66;81.67;100839.47;1622476;86;21305;-78
2021/12/26 03:00:23;;;;;;;56.30;18.00;;;;;;;-12.69;81.64;100835.87;1621355;86;20932;-78
2021/12/26 03:02:53;;;;;;;50.97;17.10;;;;;;;-12.71;81.62;100836.99;1613637;87;20931;-77
2021/12/26 03:05:22;;;;;;;52.60;17.97;;;;;;;-12.74;81.59;100831.77;1631286;86;21869;-78
2021/12/26 03:07:48;;;;;;;50.57;16.97;;;;;;;-12.77;81.59;100834.02;1615340;87;21543;-78
2021/12/26 03:10:23;;;;;;;55.60;18.83;;;;;;;-12.82;81.54;100831.16;1612096;86;21665;-78
2021/12/26 03:12:53;;;;;;;60.30;17.57;;;;;;;-12.87;81.53;100831.54;1620120;86;21084;-78
2021/12/26 03:15:21;;;;;;;52.23;17.10;;;;;;;-12.89;81.55;100830.55;1628470;86;21623;-78
2021/12/26 03:17:47;;;;;;;45.90;16.07;;;;;;;-12.92;81.54;100827.44;1616394;86;21575;-78
2021/12/26 03:20:18;;;;;;;48.83;16.83;;;;;;;-12.94;81.55;100828.94;1629245;86;21152;-78
2021/12/26 03:22:45;;;;;;;55.00;18.30;;;;;;;-12.98;81.50;100828.19;1630281;86;21005;-78
2021/12/26 03:25:15;;;;;;;49.33;17.50;;;;;;;-13.00;81.54;100830.09;1622958;86;21358;-79
2021/12/26 03:27:42;;;;;;;54.83;16.93;;;;;;;-13.03;81.48;100828.60;1618859;86;21452;-78
2021/12/26 03:30:13;;;;;;;54.60;17.90;;;;;;;-13.07;81.53;100825.87;1629559;86;21556;-79
2021/12/26 03:32:39;;;;;;;52.70;16.50;;;;;;;-13.07;81.53;100832.46;1627784;86;21446;-78
2021/12/26 03:35:07;;;;;;;51.53;16.97;;;;;;;-13.09;81.51;100832.34;1617653;86;21059;-78
2021/12/26 03:37:33;;;;;;;55.57;18.10;;;;;;;-13.07;81.59;100832.46;1618521;86;21550;-78
2021/12/26 03:39:59;;;;;;;55.17;19.17;;;;;;;-13.02;81.69;100837.44;1619618;86;21137;-78
2021/12/26 03:42:26;;;;;;;47.40;17.73;;;;;;;-13.02;81.67;100839.92;1630536;86;25260;-77
2021/12/26 03:44:52;;;;;;;52.60;17.13;;;;;;;-13.01;81.61;100840.42;1625754;86;21087;-77
2021/12/26 03:47:19;;;;;;;47.97;17.80;;;;;;;-13.02;81.51;100844.03;1625967;86;21154;-77
2021/12/26 03:49:48;;;;;;;53.13;17.27;;;;;;;-13.03;81.56;100844.41;1629355;86;21026;-77
2021/12/26 03:52:14;;;;;;;56.87;17.83;;;;;;;-13.05;81.51;100850.50;1624350;86;21576;-78
2021/12/26 03:54:40;;;;;;;58.37;18.20;;;;;;;-13.03;81.56;100847.27;1625513;86;25779;-78
2021/12/26 03:57:06;;;;;;;59.30;18.60;;;;;;;-13.05;81.52;100847.14;1634672;86;28826;-78
2021/12/26 03:59:33;;;;;;;52.57;17.17;;;;;;;-13.05;81.54;100840.92;1629090;86;21011;-78
2021/12/26 04:02:01;;;;;;;52.43;17.10;;;;;;;-13.07;81.48;100842.41;1625757;86;21135;-77
2021/12/26 04:04:28;;;;;;;52.50;16.80;;;;;;;-13.10;81.42;100843.04;1625065;86;22343;-77
2021/12/26 04:06:54;;;;;;;52.73;16.40;;;;;;;-13.09;81.47;100840.17;1627604;86;21012;-77
2021/12/26 04:09:20;;;;;;;56.00;15.73;;;;;;;-13.08;81.56;100845.28;1633012;86;28260;-77
2021/12/26 04:11:46;;;;;;;;;;;;;;;-13.09;81.46;100841.42;1634602;86;21661;-77
2021/12/26 04:14:16;;;;;;;48.87;15.00;;;;;;;-13.16;81.36;100847.55;1626942;86;20219;-77
2021/12/26 04:16:43;;;;;;;49.17;16.13;;;;;;;-13.17;81.38;100854.52;1637529;86;171019;-78
2021/12/26 04:19:09;;;;;;;56.17;17.77;;;;;;;-13.22;81.34;100859.48;1622942;86;21124;-78
2021/12/26 04:21:35;;;;;;;39.73;15.30;;;;;;;-13.24;81.33;100853.89;1631112;87;21074;-78
2021/12/26 04:24:03;;;;;;;55.13;16.63;;;;;;;-13.27;81.34;100859.86;1604131;87;21072;-78
2021/12/26 04:26:31;;;;;;;49.63;16.67;;;;;;;-13.29;81.35;100862.59;1631743;86;21067;-77
2021/12/26 04:28:57;;;;;;;51.30;17.53;;;;;;;-13.32;81.33;100864.83;1625412;86;21424;-78
2021/12/26 04:31:24;;;;;;;52.37;14.97;;;;;;;-13.35;81.30;100871.67;1621052;86;21127;-78
2021/12/26 04:33:51;;;;;;;60.07;16.33;;;;;;;-13.38;81.32;100875.14;1612414;86;21059;-78
2021/12/26 04:36:18;;;;;;;49.80;16.53;;;;;;;-13.40;81.31;100886.20;1621485;86;21157;-78
2021/12/26 04:38:45;;;;;;;55.80;15.37;;;;;;;-13.44;81.25;100879.61;1621628;86;21140;-78
2021/12/26 04:41:12;;;;;;;54.27;16.27;;;;;;;-13.47;81.27;100883.08;1619514;86;21051;-78
2021/12/26 04:43:38;;;;;;;49.57;14.83;;;;;;;-13.51;81.27;100876.12;1615667;86;20979;-78
2021/12/26 04:46:07;;;;;;;59.20;17.60;;;;;;;-13.52;81.29;100870.30;1611192;86;21421;-77
2021/12/26 04:48:37;;;;;;;48.37;14.43;;;;;;;-13.54;81.28;100874.28;1614862;86;20903;-77
2021/12/26 04:51:06;;;;;;;52.23;16.07;;;;;;;-13.56;81.27;100877.38;1617407;86;21311;-77
2021/12/26 04:53:34;;;;;;;47.30;15.47;;;;;;;-13.56;81.30;100877.01;1618658;86;20934;-78
2021/12/26 04:56:00;;;;;;;52.23;16.40;;;;;;;-13.57;81.24;100876.88;1624104;86;20903;-78
2021/12/26 04:58:27;;;;;;;45.63;14.73;;;;;;;-13.59;81.24;100875.88;1622493;86;20966;-77
2021/12/26 05:00:53;;;;;;;53.10;15.60;;;;;;;-13.61;81.23;100878.61;1616992;86;22009;-77
2021/12/26 05:03:19;;;;;;;47.80;14.70;;;;;;;-13.61;81.32;100877.37;1625466;86;21178;-77
2021/12/26 05:05:46;;;;;;;56.83;17.10;;;;;;;-13.60;81.33;100882.47;1623818;86;21086;-78
2021/12/26 05:08:12;;;;;;;48.37;15.20;;;;;;;-13.61;81.34;100879.86;1615271;86;25154;-77
2021/12/26 05:10:38;;;;;;;50.47;15.73;;;;;;;-13.60;81.34;100876.63;1624375;86;21183;-77
2021/12/26 05:13:08;;;;;;;47.17;14.97;;;;;;;-13.62;81.29;100877.74;1623552;86;21049;-78
2021/12/26 05:15:35;;;;;;;50.37;15.60;;;;;;;-13.64;81.26;100877.98;1625121;86;21081;-78
2021/12/26 05:18:04;;;;;;;45.33;14.27;;;;;;;-13.66;81.23;100878.60;1629071;86;20946;-78
2021/12/26 05:20:31;;;;;;;40.17;14.50;;;;;;;-13.67;81.26;100880.59;1611518;86;21071;-78
2021/12/26 05:22:58;;;;;;;45.73;15.73;;;;;;;-13.70;81.19;100881.20;1622670;86;21169;-78
2021/12/26 05:25:26;;;;;;;57.47;16.97;;;;;;;-13.71;81.23;100881.94;1622331;86;21184;-78
2021/12/26 05:27:54;;;;;;;39.43;15.10;;;;;;;-13.70;81.30;100882.44;1620616;86;21167;-78
2021/12/26 05:30:24;;;;;;;39.40;13.90;;;;;;;-13.70;81.29;100884.93;1633048;86;20962;-78
2021/12/26 05:32:50;;;;;;;39.27;14.53;;;;;;;-13.70;81.33;100886.17;1629505;86;21021;-78
2021/12/26 05:35:17;;;;;;;46.30;16.43;;;;;;;-13.67;81.41;100886.43;1614661;86;21063;-78
2021/12/26 05:37:45;;;;;;;51.07;17.40;;;;;;;-13.68;81.31;100886.30;1628781;86;20974;-78
2021/12/26 05:40:13;;;;;;;56.10;21.13;;;;;;;-13.69;81.27;100883.31;1630141;86;21093;-78
2021/12/26 05:42:40;;;;;;;62.27;18.67;;;;;;;-13.73;81.21;100889.27;1628903;86;21104;-78
2021/12/26 05:45:09;;;;;;;51.50;19.53;;;;;;;-13.75;81.20;100889.88;1615440;86;21061;-78
2021/12/26 05:47:35;;;;;;;60.30;19.90;;;;;;;-13.75;81.25;100893.24;1626123;86;21100;-78
2021/12/26 05:50:05;;;;;;;60.87;21.53;;;;;;;-13.74;81.28;100887.53;1628695;86;21084;-78
2021/12/26 05:52:31;;;;;;;66.40;19.63;;;;;;;-13.72;81.32;100885.17;1625269;86;21142;-78
2021/12/26 05:54:58;;;;;;;51.87;19.10;;;;;;;-13.70;81.30;100886.55;1628842;86;21656;-79
2021/12/26 05:57:25;;;;;;;57.73;18.97;;;;;;;-13.72;81.24;100884.80;1628813;86;21132;-78
2021/12/26 05:59:51;;;;;;;41.90;15.47;;;;;;;-13.73;81.23;100880.57;1629870;86;20972;-78
2021/12/26 06:02:17;;;;;;;54.37;17.37;;;;;;;-13.71;81.31;100876.97;1632718;86;21659;-78
2021/12/26 06:04:44;;;;;;;46.00;16.27;;;;;;;-13.73;81.21;100880.94;1631363;86;21067;-78
2021/12/26 06:07:10;;;;;;;51.90;16.13;;;;;;;-13.77;81.11;100877.70;1630564;86;21001;-78
2021/12/26 06:09:36;;;;;;;45.90;15.67;;;;;;;-13.80;81.09;100886.14;1631290;86;20965;-78
2021/12/26 06:12:03;;;;;;;51.37;16.40;;;;;;;-13.80;81.22;100884.90;1630898;86;28169;-78
2021/12/26 06:14:29;;;;;;;51.10;16.50;;;;;;;-13.77;81.25;100882.67;1628870;86;21627;-77
2021/12/26 06:16:55;;;;;;;48.77;15.40;;;;;;;-13.81;81.13;100885.27;1631619;86;21087;-78
2021/12/26 06:19:21;;;;;;;50.73;16.43;;;;;;;-13.82;81.14;100892.22;1629379;86;21097;-78
2021/12/26 06:21:47;;;;;;;59.17;16.83;;;;;;;-13.84;81.11;100899.05;1623315;86;25859;-77
2021/12/26 06:24:13;;;;;;;59.97;17.00;;;;;;;-13.88;81.11;100897.92;1610002;86;28274;-77
2021/12/26 06:26:40;;;;;;;46.07;17.73;;;;;;;-13.86;81.18;100899.29;1622982;86;21160;-77
2021/12/26 06:29:06;;;;;;;56.43;17.80;;;;;;;-13.85;81.21;100901.03;1625278;86;21539;-77
2021/12/26 06:31:32;;;;;;;55.10;18.33;;;;;;;-13.84;81.23;100907.75;1622686;86;21111;-78
2021/12/26 06:33:59;;;;;;;44.73;16.40;;;;;;;-13.82;81.28;100911.23;1628556;86;21531;-77
2021/12/26 06:36:25;;;;;;;54.90;18.70;;;;;;;-13.80;81.32;100914.35;1624071;86;21085;-77
2021/12/26 06:38:51;;;;;;;53.53;17.07;;;;;;;-13.77;81.40;100915.85;1627129;86;21160;-77
2021/12/26 06:41:17;;;;;;;50.23;17.47;;;;;;;-13.73;81.34;100920.34;1623379;86;21777;-78
2021/12/26 06:43:44;;;;;;;63.50;19.60;;;;;;;-13.72;81.31;100915.00;1633133;86;21111;-78
2021/12/26 06:46:10;;;;;;;54.53;17.30;;;;;;;-13.68;81.35;100920.73;1620684;86;21321;-78
2021/12/26 06:48:41;;;;;;;54.03;17.67;;;;;;;-13.68;81.25;100916.13;1612854;86;21174;-78
2021/12/26 06:51:08;;;;;;;52.13;18.07;;;;;;;-13.64;81.40;100914.41;1620539;86;21568;-78
2021/12/26 06:53:34;;;;;;;63.30;18.87;;;;;;;-13.62;81.34;100922.86;1598551;88;21397;-78
2021/12/26 06:56:00;;;;;;;64.33;18.97;;;;;;;-13.64;81.28;100920.62;1608533;87;20921;-78
2021/12/26 06:58:27;;;;;;;64.17;20.20;;;;;;;-13.65;81.19;100925.09;1604070;88;21011;-78
2021/12/26 07:00:53;;;;;;;64.73;18.53;;;;;;;-13.67;81.19;100932.42;1592478;87;21015;-78
2021/12/26 07:03:19;;;;;;;55.73;18.60;;;;;;;-13.68;81.17;100927.31;1588312;88;21223;-78
2021/12/26 07:05:45;;;;;;;58.13;17.73;;;;;;;-13.68;81.19;100923.22;1586549;88;21147;-78
2021/12/26 07:08:11;;;;;;;62.67;19.20;;;;;;;-13.70;81.16;100925.94;1598237;89;26824;-78
2021/12/26 07:10:37;;;;;;;55.90;18.67;;;;;;;-13.69;81.21;100926.44;1616562;87;21075;-74
2021/12/26 07:13:04;;;;;;;64.80;20.37;;;;;;;-13.70;81.17;100927.19;1599105;88;21110;-74
2021/12/26 07:15:30;;;;;;;56.30;20.13;;;;;;;-13.70;81.19;100928.43;1597398;88;21086;-74
2021/12/26 07:17:56;;;;;;;60.10;18.60;;;;;;;-13.68;81.19;100927.31;1607452;88;21060;-74
2021/12/26 07:20:23;;;;;;;66.00;20.63;;;;;;;-13.68;81.22;100926.94;1602733;88;21667;-74
2021/12/26 07:22:49;;;;;;;70.90;21.83;;;;;;;-13.66;81.23;100929.56;1599313;88;21118;-74
2021/12/26 07:25:16;;;;;;;65.33;23.50;;;;;;;-13.66;81.23;100927.07;1599471;87;21083;-74
2021/12/26 07:27:42;;;;;;;76.17;25.63;;;;;;;-13.64;81.25;100931.44;1600893;88;21088;-74
2021/12/26 07:30:09;;;;;;;65.13;23.33;;;;;;;-13.62;81.29;100930.31;1582761;88;21090;-74
2021/12/26 07:32:36;;;;;;;71.50;24.23;;;;;;;-13.61;81.27;100931.69;1596339;88;21135;-74
2021/12/26 07:35:03;;;;;;;70.50;25.10;;;;;;;-13.61;81.25;100929.20;1602901;88;21093;-74
2021/12/26 07:37:32;;;;;;;59.77;21.27;;;;;;;-13.59;81.26;100936.42;1593315;87;21079;-74
2021/12/26 07:39:58;;;;;;;53.03;17.40;;;;;;;-13.57;81.30;100939.91;1589897;87;21071;-74
2021/12/26 07:42:24;;;;;;;65.00;22.27;;;;;;;-13.53;81.33;100942.28;1599730;88;21071;-74
2021/12/26 07:44:50;;;;;;;79.60;24.80;;;;;;;-13.48;81.33;100948.48;1597736;88;21316;-74
2021/12/26 07:47:18;;;;;;;77.37;22.30;;;;;;;-13.46;81.31;100945.37;1584508;88;21003;-74
2021/12/26 07:49:44;;;;;;;75.47;23.80;;;;;;;-13.42;81.34;100952.35;1592649;88;21075;-74
2021/12/26 07:52:15;;;;;;;69.10;21.07;;;;;;;-13.37;81.32;100953.11;1600344;88;21398;-74
2021/12/26 07:54:39;;;;;;;64.03;20.20;;;;;;;-13.34;81.30;100956.73;1600243;87;21115;-74
2021/12/26 07:57:07;;;;;;;68.63;23.97;;;;;;;-13.30;81.37;100951.64;1590745;88;21072;-75
2021/12/26 07:59:35;;;;;;;67.77;23.33;;;;;;;-13.25;81.43;100947.55;1591774;87;21132;-75
2021/12/26 08:02:02;;;;;;;73.23;22.27;;;;;;;-13.21;81.46;100957.00;1628727;87;21103;-75
2021/12/26 08:04:28;;;;;;;71.97;22.60;;;;;;;-13.14;81.49;100958.35;1600429;87;21067;-75
2021/12/26 08:06:55;;;;;;;68.80;21.17;;;;;;;-13.08;81.52;100960.11;1593000;88;21139;-75
2021/12/26 08:09:21;;;;;;;87.53;26.87;;;;;;;-13.02;81.45;100960.98;1593510;88;21060;-75
2021/12/26 08:11:49;;;;;;;90.40;28.77;;;;;;;-12.96;81.48;100963.95;1594391;88;21074;-74
2021/12/26 08:14:15;;;;;;;82.73;26.77;;;;;;;-12.88;81.65;100957.61;1599328;88;20901;-75
2021/12/26 08:16:41;;;;;;;79.43;24.87;;;;;;;-12.76;81.73;100960.23;1596445;88;21572;-78
2021/12/26 08:19:07;;;;;;;75.70;25.07;;;;;;;-12.67;81.68;100953.88;1599913;87;20998;-75
2021/12/26 08:21:34;;;;;;;72.00;23.30;;;;;;;-12.58;81.69;100946.78;1589560;88;20904;-78
2021/12/26 08:24:01;;;;;;;77.10;24.47;;;;;;;-12.50;81.76;100944.53;1584285;88;20961;-78
2021/12/26 08:26:27;;;;;;;87.00;29.33;;;;;;;-12.44;81.68;100944.99;1587235;88;21000;-78
2021/12/26 08:28:53;;;;;;;88.27;29.27;;;;;;;-12.35;81.74;100952.70;1582582;88;20908;-78
2021/12/26 08:31:21;;;;;;;73.03;23.87;;;;;;;-12.25;81.83;100947.33;1582452;85;21377;-78
2021/12/26 08:33:48;;;;;;;70.27;24.77;;;;;;;-12.16;81.83;100946.81;1576855;89;21531;-78
2021/12/26 08:36:19;;;;;;;81.90;28.23;;;;;;;-12.11;81.73;100954.28;1575264;89;20964;-78
2021/12/26 08:38:45;;;;;;;91.80;31.97;;;;;;;-12.07;81.68;100956.26;1578422;89;20930;-78
2021/12/26 08:41:11;;;;;;;87.90;28.57;;;;;;;-12.04;81.70;100959.37;1579085;89;21004;-78
2021/12/26 08:43:37;;;;;;;;;;;;;;;-11.99;81.86;100958.11;1593834;89;21499;-76
2021/12/26 08:46:03;;;;;;;77.77;26.20;;;;;;;-11.91;81.84;100967.03;1621336;87;20603;-78
2021/12/26 08:48:30;;;;;;;79.73;26.87;;;;;;;-11.84;81.89;100960.90;1623436;87;21084;-75
2021/12/26 08:50:56;;;;;;;77.33;26.77;;;;;;;-11.77;81.97;100965.23;1618021;87;21135;-73
2021/12/26 08:53:27;;;;;;;82.13;28.57;;;;;;;-11.66;82.08;100970.16;1621220;87;21097;-73
2021/12/26 08:55:54;;;;;;;75.20;27.73;;;;;;;-11.57;82.22;100966.75;1619908;86;21492;-74
2021/12/26 08:58:21;;;;;;;74.87;27.93;;;;;;;-11.46;82.27;100969.69;1612578;87;21079;-74
2021/12/26 09:00:48;;;;;;;79.03;29.50;;;;;;;-11.36;82.26;100965.00;1607908;87;21092;-74
2021/12/26 09:03:14;;;;;;;69.33;26.17;;;;;;;-11.28;82.27;100966.45;1613688;87;21152;-74
2021/12/26 09:05:41;;;;;;;79.87;28.67;;;;;;;-11.20;82.32;100966.66;1614411;87;20932;-73
2021/12/26 09:08:10;;;;;;;90.73;32.57;;;;;;;-11.11;82.31;100968.98;1600398;88;21151;-75
2021/12/26 09:10:35;;;;;;;89.57;33.30;;;;;;;-11.04;82.29;100972.43;1612660;88;21108;-74
2021/12/26 09:13:01;;;;;;;94.92;34.00;;;;;;;-10.95;82.40;100980.61;1613487;88;21112;-74
2021/12/26 09:15:28;;;;;;;90.60;32.08;;;;;;;-10.85;82.43;100981.76;1610613;88;21016;-74
2021/12/26 09:17:55;;;;;;;99.40;34.83;;;;;;;-10.75;82.50;100982.06;1610156;88;20969;-74
2021/12/26 09:20:24;;;;;;;88.25;33.20;;;;;;;-10.65;82.52;100983.62;1609089;88;21510;-74
2021/12/26 09:22:50;;;;;;;;;;;;;;;-10.54;82.61;100983.65;1604813;88;20926;-75
2021/12/26 09:25:16;;;;;;;88.20;32.67;;;;;;;-10.42;82.64;100988.67;1602948;88;20199;-74
2021/12/26 09:27:42;;;;;;;;;;;;;;;-10.32;82.65;100981.44;1621734;86;21018;-74
2021/12/26 09:30:11;;;;;;;89.25;33.08;;;;;;;-10.23;82.66;100989.22;1625386;86;20104;-74
2021/12/26 09:32:37;;;;;;;131.75;41.37;;;;;;;-10.15;82.64;100988.11;1622870;86;20940;-74
2021/12/26 09:35:05;;;;;;;129.95;45.23;;;;;;;-10.07;82.67;100987.03;1624164;86;20940;-74
2021/12/26 09:37:32;;;;;;;127.40;40.43;;;;;;;-9.98;82.70;100986.83;1618274;86;21262;-74
2021/12/26 09:39:58;;;;;;;101.45;39.00;;;;;;;-9.90;82.75;100989.49;1622140;86;21059;-74
2021/12/26 09:42:24;;;;;;;108.97;36.95;;;;;;;-9.82;82.68;100983.75;1618488;86;21004;-74
2021/12/26 09:44:51;;;;;;;;;;;;;;;-9.76;82.67;100981.68;1624337;86;21123;-75
2021/12/26 09:47:17;;;;;;;91.43;35.03;;;;;;;-9.68;82.73;100980.59;1618720;86;20260;-75
2021/12/26 09:49:43;;;;;;;;;;;;;;;-9.60;82.75;100980.73;1619976;86;20997;-74
2021/12/26 09:52:09;;;;;;;138.45;45.73;;;;;;;-9.53;82.77;100979.53;1617984;86;20245;-74
2021/12/26 09:54:36;;;;;;;121.97;43.10;;;;;;;-9.46;82.76;100979.20;1622707;86;21149;-74
2021/12/26 09:57:06;;;;;;;96.35;35.23;;;;;;;-9.39;82.79;100980.98;1622274;86;21160;-75
2021/12/26 09:59:32;;;;;;;86.08;33.15;;;;;;;-9.32;82.86;100978.48;1623812;86;21407;-74
2021/12/26 10:02:08;;;;;;;90.85;33.48;;;;;;;-9.25;82.77;100983.53;1624857;86;21588;-75
2021/12/26 10:04:36;;;;;;;88.82;33.95;;;;;;;-9.21;82.77;100977.97;1619026;86;21043;-74
2021/12/26 10:07:13;;;;;;;88.30;32.93;;;;;;;-9.14;82.82;100980.99;1631956;85;21053;-74
2021/12/26 10:09:43;;;;;;;95.83;34.70;;;;;;;-9.06;82.90;100984.02;1618905;86;21045;-74
2021/12/26 10:12:15;;;;;;;91.32;33.20;;;;;;;-8.96;82.96;100989.27;1621331;86;21121;-75
2021/12/26 10:14:43;;;;;;;90.38;33.73;;;;;;;-8.87;83.02;100987.38;1616825;86;21092;-74
2021/12/26 10:17:12;;;;;;;79.67;32.13;;;;;;;-8.79;83.05;100993.36;1626981;86;20941;-75
2021/12/26 10:19:47;;;;;;;72.90;29.07;;;;;;;-8.70;83.09;100986.46;1607461;86;20905;-75
2021/12/26 10:22:17;;;;;;;75.25;29.65;;;;;;;-8.61;83.10;100989.09;1620294;86;21003;-74
2021/12/26 10:24:51;;;;;;;78.80;29.55;;;;;;;-8.52;83.11;100994.33;1613192;86;21445;-75
2021/12/26 10:27:27;;;;;;;74.62;29.35;;;;;;;-8.44;83.09;100994.45;1618919;86;20947;-75
2021/12/26 10:30:00;;;;;;;72.37;29.07;;;;;;;-8.38;83.07;100996.10;1605095;86;20979;-75
2021/12/26 10:32:37;;;;;;;83.97;29.82;;;;;;;-8.29;83.10;100997.41;1601663;88;20951;-75
2021/12/26 10:35:11;;;;;;;81.47;32.28;;;;;;;-8.23;83.12;100998.67;1610618;88;20971;-75
2021/12/26 10:37:45;;;;;;;91.42;34.83;;;;;;;-8.14;83.16;101006.80;1600675;88;20964;-75
2021/12/26 10:40:22;;;;;;;105.10;39.80;;;;;;;-8.05;83.24;101004.88;1598429;88;21392;-75
2021/12/26 10:43:00;;;;;;;122.55;48.98;;;;;;;-7.96;83.27;100997.07;1606539;88;21061;-75
2021/12/26 10:45:35;;;;;;;120.33;47.95;;;;;;;-7.87;83.30;100990.13;1612167;88;20991;-75
2021/12/26 10:48:05;;;;;;;104.38;41.28;;;;;;;-7.77;83.33;100988.65;1609312;88;20937;-75
2021/12/26 10:50:36;;;;;;;97.25;39.38;;;;;;;-7.67;83.38;100990.09;1611263;88;21374;-75
2021/12/26 10:53:11;;;;;;;106.52;40.23;;;;;;;-7.58;83.37;100989.41;1604420;88;21000;-75
2021/12/26 10:55:51;;;;;;;103.90;39.60;;;;;;;-7.49;83.38;100989.98;1607705;88;21643;-75
2021/12/26 10:58:19;;;;;;;101.58;39.20;;;;;;;-7.41;83.40;100989.20;1602285;86;21577;-75
2021/12/26 11:00:51;;;;;;;98.62;35.40;;;;;;;-7.31;83.43;100987.73;1599068;88;21663;-75
2021/12/26 11:03:24;;;;;;;81.12;33.70;;;;;;;-7.22;83.49;100981.12;1606396;88;21165;-75
2021/12/26 11:06:01;;;;;;;76.12;31.75;;;;;;;-7.14;83.44;100985.83;1603043;88;21652;-75
2021/12/26 11:08:32;;;;;;;80.55;32.78;;;;;;;-7.08;83.42;100974.03;1606967;88;21652;-75
2021/12/26 11:11:11;;;;;;;80.90;33.05;;;;;;;-7.04;83.40;100969.28;1613598;88;21801;-74